createdAt,value
2024-03-05T00:00:17.732Z,26.73
2024-03-05T00:02:44.844Z,23.20
2024-03-05T00:05:15.267Z,25.42
2024-03-05T00:07:42.351Z,24.47
2024-03-05T00:10:08.909Z,25.27
2024-03-05T00:12:35.734Z,26.27
2024-03-05T00:15:02.601Z,25.88
2024-03-05T00:17:29.061Z,25.45
2024-03-05T00:19:55.702Z,24.42
2024-03-05T00:22:22.263Z,25.75
2024-03-05T00:24:48.828Z,26.73
2024-03-05T00:27:15.313Z,24.02
2024-03-05T00:29:42.262Z,24.90
2024-03-05T00:32:08.790Z,26.48
2024-03-05T00:34:35.322Z,24.02
2024-03-05T00:37:01.809Z,21.38
2024-03-05T00:39:28.327Z,24.38
2024-03-05T00:41:55.285Z,24.40
2024-03-05T00:44:21.865Z,23.88
2024-03-05T00:46:48.320Z,22.75
2024-03-05T00:49:14.835Z,26.58
2024-03-05T00:51:41.478Z,27.30
2024-03-05T00:54:07.989Z,24.52
2024-03-05T00:56:34.399Z,23.73
2024-03-05T00:59:00.880Z,25.50
2024-03-05T01:01:27.467Z,25.13
2024-03-05T01:03:53.932Z,24.58
2024-03-05T01:06:20.384Z,26.15
2024-03-05T01:08:46.824Z,23.40
2024-03-05T01:11:14.734Z,25.23
2024-03-05T01:13:43.048Z,26.20
2024-03-05T01:16:10.649Z,27.58
2024-03-05T01:18:38.067Z,24.25
2024-03-05T01:21:07.057Z,25.38
2024-03-05T01:23:34.190Z,25.00
2024-03-05T01:26:01.066Z,26.90
2024-03-05T01:28:30.872Z,24.85
2024-03-05T01:30:59.976Z,26.95
2024-03-05T01:33:26.907Z,24.60
2024-03-05T01:35:54.086Z,25.55
2024-03-05T01:38:21.210Z,26.00
2024-03-05T01:40:47.741Z,24.65
2024-03-05T01:43:14.381Z,25.17
2024-03-05T01:45:40.933Z,23.95
2024-03-05T01:48:07.553Z,25.95
2024-03-05T01:50:37.923Z,22.73
2024-03-05T01:53:05.453Z,23.45
2024-03-05T01:55:32.094Z,21.83
2024-03-05T01:58:04.985Z,23.88
2024-03-05T02:00:32.484Z,23.73
2024-03-05T02:02:59.320Z,24.88
2024-03-05T02:05:25.890Z,23.05
2024-03-05T02:07:54.141Z,22.35
2024-03-05T02:10:21.396Z,23.52
2024-03-05T02:12:47.811Z,24.05
2024-03-05T02:15:14.457Z,24.20
2024-03-05T02:17:41.344Z,21.40
2024-03-05T02:20:11.150Z,20.33
2024-03-05T02:22:38.284Z,22.60
2024-03-05T02:25:06.407Z,23.63
2024-03-05T02:27:35.174Z,21.77
2024-03-05T02:30:03.736Z,20.92
2024-03-05T02:32:30.420Z,21.15
2024-03-05T02:34:56.961Z,22.33
2024-03-05T02:37:23.470Z,21.38
2024-03-05T02:39:50.669Z,20.85
2024-03-05T02:42:17.094Z,20.95
2024-03-05T02:44:43.521Z,20.75
2024-03-05T02:47:10.033Z,20.52
2024-03-05T02:49:37.935Z,24.08
2024-03-05T02:52:04.718Z,19.08
2024-03-05T02:54:31.187Z,22.25
2024-03-05T02:56:57.648Z,21.17
2024-03-05T02:59:25.167Z,23.52
2024-03-05T03:01:54.821Z,20.17
2024-03-05T03:04:21.310Z,19.90
2024-03-05T03:06:50.916Z,19.75
2024-03-05T03:09:17.364Z,20.20
2024-03-05T03:11:50.184Z,20.60
2024-03-05T03:14:16.955Z,21.02
2024-03-05T03:16:44.916Z,18.60
2024-03-05T03:19:11.932Z,19.75
2024-03-05T03:21:38.927Z,19.65
2024-03-05T03:24:05.538Z,22.33
2024-03-05T03:26:32.331Z,23.25
2024-03-05T03:28:58.997Z,24.33
2024-03-05T03:31:27.975Z,23.00
2024-03-05T03:33:54.663Z,22.25
2024-03-05T03:36:27.569Z,23.23
2024-03-05T03:38:54.150Z,22.10
2024-03-05T03:41:20.773Z,22.63
2024-03-05T03:43:48.285Z,23.30
2024-03-05T03:46:14.869Z,24.00
2024-03-05T03:48:42.033Z,26.25
2024-03-05T03:51:08.940Z,24.73
2024-03-05T03:53:38.446Z,26.30
2024-03-05T03:56:05.064Z,24.45
2024-03-05T03:58:32.085Z,23.98
2024-03-05T04:01:00.194Z,22.52
2024-03-05T04:03:26.793Z,24.98
2024-03-05T04:05:53.587Z,25.30
2024-03-05T04:08:20.004Z,23.45
2024-03-05T04:10:46.785Z,21.85
2024-03-05T04:13:13.981Z,23.05
2024-03-05T04:15:40.709Z,24.60
2024-03-05T04:18:07.201Z,27.05
2024-03-05T04:20:33.705Z,23.98
2024-03-05T04:23:00.242Z,24.23
2024-03-05T04:25:35.547Z,23.20
2024-03-05T04:28:11.623Z,22.77
2024-03-05T04:30:39.287Z,23.98
2024-03-05T04:33:12.300Z,21.40
2024-03-05T04:35:39.022Z,21.80
2024-03-05T04:38:08.389Z,20.98
2024-03-05T04:40:35.170Z,19.27
2024-03-05T04:43:01.755Z,22.17
2024-03-05T04:45:28.538Z,18.77
2024-03-05T04:47:55.385Z,18.92
2024-03-05T04:50:22.396Z,18.73
2024-03-05T04:52:49.025Z,17.70
2024-03-05T04:55:15.665Z,19.00
2024-03-05T04:57:42.131Z,19.13
2024-03-05T05:00:21.160Z,15.38
2024-03-05T05:02:49.132Z,16.73
2024-03-05T05:05:16.816Z,16.42
2024-03-05T05:07:44.455Z,16.33
2024-03-05T05:10:11.542Z,14.68
2024-03-05T05:12:39.289Z,17.05
2024-03-05T05:15:09.084Z,17.35
2024-03-05T05:17:36.009Z,17.05
2024-03-05T05:20:03.984Z,15.32
2024-03-05T05:22:30.856Z,18.45
2024-03-05T05:24:57.478Z,18.58
2024-03-05T05:27:24.539Z,20.60
2024-03-05T05:29:53.122Z,18.60
2024-03-05T05:32:21.767Z,17.15
2024-03-05T05:34:48.244Z,16.38
2024-03-05T05:37:16.609Z,14.68
2024-03-05T05:39:43.134Z,17.30
2024-03-05T05:42:13.078Z,15.45
2024-03-05T05:44:39.602Z,16.17
2024-03-05T05:47:06.099Z,14.55
2024-03-05T05:49:33.476Z,18.05
2024-03-05T05:52:00.037Z,19.05
2024-03-05T05:54:26.851Z,18.95
2024-03-05T05:56:53.374Z,21.67
2024-03-05T05:59:20.128Z,22.70
2024-03-05T06:01:46.708Z,22.08
2024-03-05T06:04:13.513Z,20.67
2024-03-05T06:06:40.197Z,21.35
2024-03-05T06:09:09.881Z,22.15
2024-03-05T06:11:37.487Z,18.05
2024-03-05T06:14:04.564Z,20.42
2024-03-05T06:16:32.122Z,20.50
2024-03-05T06:18:58.731Z,19.83
2024-03-05T06:21:25.229Z,19.75
2024-03-05T06:23:51.856Z,18.45
2024-03-05T06:26:18.305Z,17.23
2024-03-05T06:28:45.006Z,20.77
2024-03-05T06:31:11.580Z,19.77
2024-03-05T06:33:38.411Z,20.20
2024-03-05T06:36:08.109Z,20.98
2024-03-05T06:38:35.684Z,20.25
2024-03-05T06:41:03.089Z,19.67
2024-03-05T06:43:39.210Z,21.90
2024-03-05T06:46:06.081Z,20.50
2024-03-05T06:48:34.538Z,19.27
2024-03-05T06:51:17.108Z,17.73
2024-03-05T06:54:02.578Z,19.30
2024-03-05T06:56:41.665Z,16.65
2024-03-05T06:59:11.224Z,17.48
2024-03-05T07:01:38.139Z,18.48
2024-03-05T07:04:06.963Z,19.50
2024-03-05T07:06:33.549Z,19.80
2024-03-05T07:09:00.938Z,14.20
2024-03-05T07:11:28.795Z,16.17
2024-03-05T07:13:56.615Z,13.23
2024-03-05T07:16:24.993Z,11.50
2024-03-05T07:18:54.202Z,9.02
2024-03-05T07:21:22.928Z,9.57
2024-03-05T07:23:50.200Z,11.05
2024-03-05T07:26:16.996Z,11.07
2024-03-05T07:28:44.352Z,10.68
2024-03-05T07:31:11.210Z,11.05
2024-03-05T07:33:39.389Z,10.43
2024-03-05T07:36:07.477Z,11.50
2024-03-05T07:38:37.073Z,11.38
2024-03-05T07:41:13.306Z,12.18
2024-03-05T07:43:44.581Z,10.38
2024-03-05T07:46:11.609Z,10.07
2024-03-05T07:48:38.219Z,11.93
2024-03-05T07:51:04.787Z,13.85
2024-03-05T07:53:31.457Z,11.40
2024-03-05T07:55:58.542Z,10.95
2024-03-05T07:58:25.476Z,11.88
2024-03-05T08:00:52.124Z,10.48
2024-03-05T08:03:18.603Z,12.70
2024-03-05T08:05:45.806Z,11.30
2024-03-05T08:08:12.353Z,10.65
2024-03-05T08:10:39.125Z,10.98
2024-03-05T08:13:05.749Z,10.05
2024-03-05T08:15:32.227Z,11.75
2024-03-05T08:17:59.801Z,11.98
2024-03-05T08:20:27.096Z,10.70
2024-03-05T08:22:57.398Z,11.05
2024-03-05T08:25:24.805Z,11.30
2024-03-05T08:27:54.463Z,11.88
2024-03-05T08:30:25.377Z,11.32
2024-03-05T08:32:53.625Z,11.75
2024-03-05T08:35:20.569Z,11.23
2024-03-05T08:37:48.533Z,10.60
2024-03-05T08:40:16.404Z,11.40
2024-03-05T08:42:43.685Z,13.00
2024-03-05T08:45:14.037Z,11.38
2024-03-05T08:47:41.342Z,12.13
2024-03-05T08:50:07.972Z,9.73
2024-03-05T08:52:34.563Z,10.10
2024-03-05T08:55:01.013Z,9.63
2024-03-05T08:57:27.446Z,9.40
2024-03-05T08:59:54.295Z,10.88
2024-03-05T09:02:20.871Z,9.73
2024-03-05T09:04:49.158Z,8.88
2024-03-05T09:07:16.000Z,8.60
2024-03-05T09:09:43.088Z,8.65
2024-03-05T09:12:10.161Z,10.13
2024-03-05T09:14:37.045Z,9.45
2024-03-05T09:17:04.042Z,9.02
2024-03-05T09:19:30.650Z,10.32
2024-03-05T09:21:57.119Z,7.65
2024-03-05T09:24:23.853Z,7.97
2024-03-05T09:26:51.230Z,8.35
2024-03-05T09:29:17.870Z,8.90
2024-03-05T09:31:44.439Z,7.70
2024-03-05T09:34:10.999Z,7.85
2024-03-05T09:36:38.230Z,8.32
2024-03-05T09:39:10.122Z,6.10
2024-03-05T09:41:46.038Z,5.63
2024-03-05T09:44:12.945Z,5.40
2024-03-05T09:46:47.104Z,4.53
2024-03-05T09:49:22.405Z,4.60
2024-03-05T09:51:52.099Z,3.53
2024-03-05T09:54:18.559Z,2.53
2024-03-05T09:56:46.925Z,2.10
2024-03-05T09:59:14.233Z,2.22
2024-03-05T10:01:45.904Z,1.95
2024-03-05T10:04:13.968Z,1.60
2024-03-05T10:06:40.444Z,1.67
2024-03-05T10:09:10.050Z,3.17
2024-03-05T10:11:37.415Z,1.17
2024-03-05T10:14:09.225Z,1.20
2024-03-05T10:19:13.047Z,1.08
2024-03-05T10:21:45.537Z,0.90
2024-03-05T10:24:13.441Z,0.93
2024-03-05T10:26:39.997Z,1.23
2024-03-05T10:29:10.352Z,0.90
2024-03-05T10:31:40.822Z,1.00
2024-03-05T10:34:07.910Z,0.85
2024-03-05T10:36:35.326Z,0.73
2024-03-05T10:39:02.338Z,0.60
2024-03-05T10:41:39.004Z,0.73
2024-03-05T10:44:14.632Z,0.70
2024-03-05T10:46:44.267Z,0.60
2024-03-05T10:49:12.402Z,0.63
2024-03-05T10:51:39.791Z,0.43
2024-03-05T10:54:06.883Z,0.88
2024-03-05T10:56:43.381Z,0.68
2024-03-05T10:59:18.464Z,0.68
2024-03-05T11:01:46.076Z,0.50
2024-03-05T11:04:14.493Z,1.02
2024-03-05T11:06:41.996Z,0.70
2024-03-05T11:09:12.052Z,0.40
2024-03-05T11:11:40.623Z,0.50
2024-03-05T11:14:08.041Z,0.60
2024-03-05T11:16:35.266Z,0.70
2024-03-05T11:19:05.813Z,0.75
2024-03-05T11:21:35.509Z,2.25
2024-03-05T11:24:03.632Z,0.80
2024-03-05T11:26:33.473Z,0.90
2024-03-05T11:29:26.271Z,1.00
2024-03-05T11:31:53.544Z,0.80
2024-03-05T11:34:21.010Z,0.95
2024-03-05T11:37:07.779Z,0.85
2024-03-05T11:39:36.314Z,1.10
2024-03-05T11:42:03.298Z,1.10
2024-03-05T11:44:32.788Z,1.00
2024-03-05T11:46:59.620Z,0.90
2024-03-05T11:49:26.196Z,1.00
2024-03-05T11:51:55.496Z,1.88
2024-03-05T11:54:25.016Z,0.60
2024-03-05T11:56:58.842Z,1.13
2024-03-05T11:59:35.588Z,0.75
2024-03-05T12:02:02.394Z,0.60
2024-03-05T12:04:29.065Z,0.50
2024-03-05T12:07:07.012Z,0.50
2024-03-05T12:09:38.091Z,0.43
2024-03-05T12:12:12.589Z,1.00
2024-03-05T12:15:03.850Z,1.05
2024-03-05T12:17:33.827Z,1.02
2024-03-05T12:20:08.987Z,0.80
2024-03-05T12:22:40.983Z,0.73
2024-03-05T12:25:09.225Z,1.23
2024-03-05T12:27:38.256Z,1.20
2024-03-05T12:30:07.418Z,1.15
2024-03-05T12:32:34.007Z,0.70
2024-03-05T12:35:00.739Z,1.02
2024-03-05T12:37:29.428Z,1.20
2024-03-05T12:40:00.674Z,1.00
2024-03-05T12:42:27.207Z,1.10
2024-03-05T12:45:03.294Z,1.08
2024-03-05T12:47:30.539Z,1.20
2024-03-05T12:50:00.758Z,1.40
2024-03-05T12:52:27.348Z,1.15
2024-03-05T12:55:01.200Z,1.30
2024-03-05T12:57:28.662Z,1.40
2024-03-05T12:59:57.100Z,0.90
2024-03-05T13:02:24.031Z,1.35
2024-03-05T13:04:50.832Z,1.00
2024-03-05T13:07:17.337Z,0.95
2024-03-05T13:09:43.854Z,1.08
2024-03-05T13:12:10.416Z,1.05
2024-03-05T13:14:37.451Z,0.82
2024-03-05T13:17:04.376Z,1.38
2024-03-05T13:19:31.390Z,1.42
2024-03-05T13:21:57.854Z,1.10
2024-03-05T13:24:24.291Z,1.67
2024-03-05T13:26:50.854Z,1.30
2024-03-05T13:29:17.667Z,1.30
2024-03-05T13:31:44.219Z,1.20
2024-03-05T13:34:11.283Z,1.02
2024-03-05T13:36:38.784Z,1.95
2024-03-05T13:39:09.443Z,0.98
2024-03-05T13:41:36.718Z,1.10
2024-03-05T13:44:03.388Z,1.02
2024-03-05T13:46:29.970Z,1.08
2024-03-05T13:48:59.448Z,1.42
2024-03-05T13:51:27.530Z,1.20
2024-03-05T13:53:54.513Z,1.35
2024-03-05T13:56:21.413Z,1.05
2024-03-05T13:58:47.949Z,1.33
2024-03-05T14:01:14.453Z,1.02
2024-03-05T14:03:40.963Z,1.25
2024-03-05T14:06:08.051Z,1.80
2024-03-05T14:08:35.417Z,1.52
2024-03-05T14:11:05.469Z,1.10
2024-03-05T14:13:34.106Z,0.65
2024-03-05T14:16:01.179Z,0.85
2024-03-05T14:18:27.666Z,1.30
2024-03-05T14:20:54.359Z,0.95
2024-03-05T14:23:21.015Z,1.50
2024-03-05T14:25:48.019Z,1.25
2024-03-05T14:28:15.698Z,1.65
2024-03-05T14:30:42.260Z,1.15
2024-03-05T14:33:09.006Z,1.25
2024-03-05T14:35:36.469Z,1.25
2024-03-05T14:38:03.150Z,1.60
2024-03-05T14:40:29.743Z,1.50
2024-03-05T14:42:56.547Z,1.38
2024-03-05T14:45:23.609Z,2.80
2024-03-05T14:47:50.881Z,1.50
2024-03-05T14:50:23.339Z,1.10
2024-03-05T14:52:49.957Z,1.73
2024-03-05T14:55:16.471Z,1.30
2024-03-05T14:57:43.486Z,1.48
2024-03-05T15:00:16.904Z,1.02
2024-03-05T15:02:45.922Z,1.05
2024-03-05T15:05:13.101Z,0.95
2024-03-05T15:07:42.852Z,0.60
2024-03-05T15:10:16.140Z,0.77
2024-03-05T15:12:44.637Z,0.60
2024-03-05T15:15:12.358Z,0.60
2024-03-05T15:17:39.418Z,0.73
2024-03-05T15:20:11.636Z,1.17
2024-03-05T15:22:39.527Z,1.20
2024-03-05T15:25:08.040Z,0.70
2024-03-05T15:27:35.239Z,0.90
2024-03-05T15:30:02.592Z,0.90
2024-03-05T15:32:29.120Z,0.90
2024-03-05T15:34:57.700Z,1.30
2024-03-05T15:37:25.449Z,1.15
2024-03-05T15:39:52.045Z,1.58
2024-03-05T15:42:18.614Z,1.10
2024-03-05T15:44:47.916Z,1.30
2024-03-05T15:47:14.673Z,0.88
2024-03-05T15:49:42.124Z,1.00
2024-03-05T15:52:12.319Z,0.88
2024-03-05T15:54:40.540Z,1.38
2024-03-05T15:57:10.132Z,1.35
2024-03-05T15:59:55.303Z,1.52
2024-03-05T16:02:24.989Z,1.58
2024-03-05T16:05:13.271Z,1.25
2024-03-05T16:07:39.725Z,1.10
2024-03-05T16:10:14.418Z,1.50
2024-03-05T16:12:43.494Z,1.35
2024-03-05T16:15:11.496Z,1.15
2024-03-05T16:17:38.393Z,1.80
2024-03-05T16:20:07.193Z,1.77
2024-03-05T16:22:36.670Z,1.40
2024-03-05T16:25:12.208Z,1.60
2024-03-05T16:27:45.801Z,1.70
2024-03-05T16:30:12.441Z,0.90
2024-03-05T16:32:39.370Z,0.80
2024-03-05T16:35:07.002Z,1.13
2024-03-05T16:37:33.926Z,0.80
2024-03-05T16:40:00.591Z,0.95
2024-03-05T16:42:27.858Z,1.00
2024-03-05T16:44:54.297Z,0.50
2024-03-05T16:47:20.753Z,0.88
2024-03-05T16:49:47.215Z,0.88
2024-03-05T16:52:13.890Z,1.58
2024-03-05T16:54:40.364Z,1.52
2024-03-05T16:57:09.130Z,2.13
2024-03-05T16:59:35.628Z,2.03
2024-03-05T17:02:03.119Z,1.92
2024-03-05T17:04:30.081Z,1.50
2024-03-05T17:07:00.134Z,1.92
2024-03-05T17:09:30.807Z,1.63
2024-03-05T17:11:59.756Z,1.90
2024-03-05T17:14:26.311Z,1.50
2024-03-05T17:16:58.111Z,2.17
2024-03-05T17:19:25.884Z,2.30
2024-03-05T17:21:53.008Z,2.05
2024-03-05T17:24:19.794Z,1.33
2024-03-05T17:26:46.838Z,1.50
2024-03-05T17:29:14.502Z,1.40
2024-03-05T17:31:41.150Z,1.50
2024-03-05T17:34:09.765Z,1.10
2024-03-05T17:36:37.962Z,0.85
2024-03-05T17:39:11.177Z,1.48
2024-03-05T17:41:38.364Z,0.80
2024-03-05T17:44:06.048Z,1.02
2024-03-05T17:46:33.523Z,1.23
2024-03-05T17:49:00.855Z,1.10
2024-03-05T17:51:27.304Z,1.08
2024-03-05T17:53:54.116Z,1.13
2024-03-05T17:56:20.878Z,0.80
2024-03-05T17:58:47.517Z,1.80
2024-03-05T18:01:15.341Z,1.58
2024-03-05T18:03:44.584Z,1.02
2024-03-05T18:06:12.029Z,2.38
2024-03-05T18:08:38.499Z,2.20
2024-03-05T18:11:06.876Z,2.78
2024-03-05T18:13:33.393Z,2.22
2024-03-05T18:16:00.394Z,1.00
2024-03-05T18:18:27.892Z,1.63
2024-03-05T18:20:55.126Z,2.08
2024-03-05T18:23:22.177Z,1.60
2024-03-05T18:25:49.791Z,2.65
2024-03-05T18:28:21.260Z,2.88
2024-03-05T18:30:49.251Z,3.13
2024-03-05T18:33:17.345Z,3.17
2024-03-05T18:35:46.357Z,1.98
2024-03-05T18:38:23.984Z,2.97
2024-03-05T18:40:57.892Z,2.92
2024-03-05T18:43:26.194Z,3.15
2024-03-05T18:45:53.118Z,3.30
2024-03-05T18:48:19.642Z,2.17
2024-03-05T18:50:48.059Z,2.38
2024-03-05T18:53:15.137Z,1.98
2024-03-05T18:55:42.189Z,1.98
2024-03-05T18:58:09.460Z,1.02
2024-03-05T19:00:37.756Z,1.17
2024-03-05T19:03:06.135Z,1.25
2024-03-05T19:05:34.231Z,1.30
2024-03-05T19:08:00.703Z,1.23
2024-03-05T19:10:27.209Z,1.17
2024-03-05T19:12:54.897Z,1.45
2024-03-05T19:15:23.523Z,1.95
2024-03-05T19:17:50.073Z,2.30
2024-03-05T19:20:16.886Z,2.40
2024-03-05T19:22:43.777Z,2.25
2024-03-05T19:25:12.698Z,2.10
2024-03-05T19:27:40.086Z,2.72
2024-03-05T19:30:11.678Z,1.88
2024-03-05T19:32:41.570Z,2.33
2024-03-05T19:35:12.102Z,1.67
2024-03-05T19:37:41.308Z,1.60
2024-03-05T19:40:09.215Z,1.80
2024-03-05T19:42:35.741Z,5.25
2024-03-05T19:45:02.286Z,6.43
2024-03-05T19:47:30.188Z,7.97
2024-03-05T19:49:56.946Z,6.63
2024-03-05T19:52:24.280Z,9.70
2024-03-05T19:54:51.161Z,6.38
2024-03-05T19:57:19.082Z,6.15
2024-03-05T19:59:45.810Z,5.60
2024-03-05T20:02:12.407Z,4.70
2024-03-05T20:04:39.088Z,4.07
2024-03-05T20:07:06.374Z,3.85
2024-03-05T20:09:33.075Z,3.42
2024-03-05T20:11:59.567Z,2.72
2024-03-05T20:14:26.089Z,2.58
2024-03-05T20:16:52.575Z,3.00
2024-03-05T20:19:20.710Z,3.10
2024-03-05T20:21:49.259Z,3.47
2024-03-05T20:24:16.142Z,2.72
2024-03-05T20:26:48.895Z,2.90
2024-03-05T20:29:15.403Z,3.47
2024-03-05T20:31:41.934Z,3.15
2024-03-05T20:34:10.757Z,4.18
2024-03-05T20:36:38.033Z,4.65
2024-03-05T20:39:05.875Z,4.05
2024-03-05T20:41:34.724Z,3.33
2024-03-05T20:44:01.343Z,3.35
2024-03-05T20:46:30.063Z,4.32
2024-03-05T20:48:56.862Z,3.08
2024-03-05T20:51:23.741Z,2.85
2024-03-05T20:53:50.373Z,3.20
2024-03-05T20:56:17.098Z,3.20
2024-03-05T20:58:43.580Z,3.15
2024-03-05T21:01:10.361Z,4.00
2024-03-05T21:03:37.127Z,4.28
2024-03-05T21:06:04.381Z,3.30
2024-03-05T21:08:32.591Z,5.32
2024-03-05T21:10:59.223Z,6.53
2024-03-05T21:13:27.903Z,4.65
2024-03-05T21:15:54.615Z,6.85
2024-03-05T21:18:21.255Z,3.20
2024-03-05T21:20:47.696Z,2.90
2024-03-05T21:23:17.912Z,3.45
2024-03-05T21:25:56.580Z,3.88
2024-03-05T21:28:31.670Z,9.45
2024-03-05T21:30:58.198Z,8.07
2024-03-05T21:33:24.712Z,6.72
2024-03-05T21:35:51.594Z,8.15
2024-03-05T21:38:18.607Z,5.55
2024-03-05T21:40:45.123Z,6.63
2024-03-05T21:43:11.701Z,6.32
2024-03-05T21:45:39.410Z,5.82
2024-03-05T21:48:06.102Z,5.70
2024-03-05T21:50:33.023Z,5.85
2024-03-05T21:52:59.513Z,5.85
2024-03-05T21:55:26.000Z,5.28
2024-03-05T21:57:52.464Z,6.97
2024-03-05T22:00:19.199Z,12.07
2024-03-05T22:02:46.079Z,12.10
2024-03-05T22:05:13.371Z,7.55
2024-03-05T22:07:40.352Z,6.30
2024-03-05T22:10:07.390Z,5.97
2024-03-05T22:12:34.266Z,9.82
2024-03-05T22:15:00.767Z,5.30
2024-03-05T22:17:27.709Z,6.47
2024-03-05T22:19:54.652Z,6.57
2024-03-05T22:22:22.934Z,6.50
2024-03-05T22:24:49.442Z,5.57
2024-03-05T22:27:16.048Z,5.40
2024-03-05T22:29:42.495Z,5.80
2024-03-05T22:32:09.025Z,5.07
2024-03-05T22:34:37.252Z,4.55
2024-03-05T22:37:04.458Z,4.95
2024-03-05T22:39:30.873Z,4.10
2024-03-05T22:41:57.361Z,4.82
2024-03-05T22:44:24.782Z,4.47
2024-03-05T22:46:51.378Z,4.80
2024-03-05T22:49:17.887Z,3.53
2024-03-05T22:51:44.460Z,6.07
2024-03-05T22:54:12.121Z,4.47
2024-03-05T22:56:38.631Z,4.35
2024-03-05T22:59:05.361Z,4.50
2024-03-05T23:01:31.979Z,4.97
2024-03-05T23:03:58.528Z,5.88
2024-03-05T23:06:25.913Z,5.85
2024-03-05T23:08:55.160Z,5.40
2024-03-05T23:11:21.820Z,4.15
2024-03-05T23:13:48.432Z,4.80
2024-03-05T23:16:14.953Z,4.57
2024-03-05T23:18:42.193Z,4.03
2024-03-05T23:21:10.795Z,4.82
2024-03-05T23:23:39.253Z,5.50
2024-03-05T23:26:07.515Z,4.53
2024-03-05T23:28:34.182Z,3.85
2024-03-05T23:31:00.730Z,3.70
2024-03-05T23:33:27.165Z,3.60
2024-03-05T23:35:53.581Z,4.55
2024-03-05T23:38:21.866Z,3.92
2024-03-05T23:40:48.359Z,3.38
2024-03-05T23:43:14.866Z,4.25
2024-03-05T23:45:41.301Z,4.10
2024-03-05T23:48:09.756Z,4.47
2024-03-05T23:50:36.488Z,5.40
2024-03-05T23:53:03.283Z,4.28
2024-03-05T23:55:29.918Z,4.13
2024-03-05T23:57:56.388Z,4.35
